Change Islands, Canada
Current Conditions -  °F | °C
As of 9:00 AM on Thursday 29 Jan 2015 (Local Time) from CYQX Reporting Station
Scattered Clouds Scattered Clouds  
Wind Chill: 28°   Ceiling: Unl
Heat Index: 36°   Visibility: 15mi
Dew Point: 34°   Wind: 12mph
Humidity: 93%   Direction: 250°WSW
Pressure: 29.78"   Gusts: 18mph
Location:  49.65°N, 54.38°W
Report Text: CYQX 291200Z 25010G16KT 15SM FEW007 FEW015 SCT043 02/01 A2978 RMK SF1SC1SC2 CI TR SLP092
Loading
Personal Weather Stations






























Interactive Weather Map New forecast layout! Learn more

10-Day Weather Forecast

Advertisements
Track Severe Weather on mobile